sensor_id;sensor_type;location;lat;lon;timestamp;temperature;humidity
12971;DHT22;6550;48.650;8.774;2024-02-16T00:01:01;9.50;99.90
12971;DHT22;6550;48.650;8.774;2024-02-16T00:03:28;9.80;99.90
12971;DHT22;6550;48.650;8.774;2024-02-16T00:05:55;9.60;99.90
12971;DHT22;6550;48.650;8.774;2024-02-16T00:08:24;9.70;99.90
12971;DHT22;6550;48.650;8.774;2024-02-16T00:10:54;9.60;99.90
12971;DHT22;6550;48.650;8.774;2024-02-16T00:13:22;9.50;99.90
12971;DHT22;6550;48.650;8.774;2024-02-16T00:15:49;9.70;99.90
12971;DHT22;6550;48.650;8.774;2024-02-16T00:18:20;9.70;99.90
12971;DHT22;6550;48.650;8.774;2024-02-16T00:20:49;9.70;99.90
12971;DHT22;6550;48.650;8.774;2024-02-16T00:23:18;9.50;99.90
12971;DHT22;6550;48.650;8.774;2024-02-16T00:25:48;9.70;99.90
12971;DHT22;6550;48.650;8.774;2024-02-16T00:28:18;9.70;99.90
12971;DHT22;6550;48.650;8.774;2024-02-16T00:30:47;9.70;99.90
12971;DHT22;6550;48.650;8.774;2024-02-16T00:33:16;9.70;99.90
12971;DHT22;6550;48.650;8.774;2024-02-16T00:35:45;9.50;99.90
12971;DHT22;6550;48.650;8.774;2024-02-16T00:38:18;9.50;99.90
12971;DHT22;6550;48.650;8.774;2024-02-16T00:40:47;10.00;99.90
12971;DHT22;6550;48.650;8.774;2024-02-16T00:43:16;10.00;99.90
12971;DHT22;6550;48.650;8.774;2024-02-16T00:45:44;10.30;99.90
12971;DHT22;6550;48.650;8.774;2024-02-16T00:48:11;9.70;99.90
12971;DHT22;6550;48.650;8.774;2024-02-16T00:50:38;9.80;99.90
12971;DHT22;6550;48.650;8.774;2024-02-16T00:53:05;9.60;99.90
12971;DHT22;6550;48.650;8.774;2024-02-16T00:55:35;9.60;99.90
12971;DHT22;6550;48.650;8.774;2024-02-16T00:58:04;9.60;99.90
12971;DHT22;6550;48.650;8.774;2024-02-16T01:00:33;10.00;99.90
12971;DHT22;6550;48.650;8.774;2024-02-16T01:03:00;9.80;99.90
12971;DHT22;6550;48.650;8.774;2024-02-16T01:05:27;9.70;99.90
12971;DHT22;6550;48.650;8.774;2024-02-16T01:07:54;9.60;99.90
12971;DHT22;6550;48.650;8.774;2024-02-16T01:10:23;9.80;99.90
12971;DHT22;6550;48.650;8.774;2024-02-16T01:12:52;9.70;99.90
12971;DHT22;6550;48.650;8.774;2024-02-16T01:15:19;9.70;99.90
12971;DHT22;6550;48.650;8.774;2024-02-16T01:17:46;9.80;99.90
12971;DHT22;6550;48.650;8.774;2024-02-16T01:20:13;9.80;99.90
12971;DHT22;6550;48.650;8.774;2024-02-16T01:22:42;10.00;99.90
12971;DHT22;6550;48.650;8.774;2024-02-16T01:25:11;9.90;99.90
12971;DHT22;6550;48.650;8.774;2024-02-16T01:27:38;10.20;99.90
12971;DHT22;6550;48.650;8.774;2024-02-16T01:30:07;9.80;99.90
12971;DHT22;6550;48.650;8.774;2024-02-16T01:32:36;9.80;99.90
12971;DHT22;6550;48.650;8.774;2024-02-16T01:35:10;9.80;99.90
12971;DHT22;6550;48.650;8.774;2024-02-16T01:37:41;9.70;99.90
12971;DHT22;6550;48.650;8.774;2024-02-16T01:40:10;9.80;99.90
12971;DHT22;6550;48.650;8.774;2024-02-16T01:42:41;9.80;99.90
12971;DHT22;6550;48.650;8.774;2024-02-16T01:45:13;10.70;99.90
12971;DHT22;6550;48.650;8.774;2024-02-16T01:47:47;9.80;99.90
12971;DHT22;6550;48.650;8.774;2024-02-16T01:50:17;9.80;99.90
12971;DHT22;6550;48.650;8.774;2024-02-16T01:52:46;9.80;99.90
12971;DHT22;6550;48.650;8.774;2024-02-16T01:55:13;9.80;99.90
12971;DHT22;6550;48.650;8.774;2024-02-16T01:57:46;9.70;99.90
12971;DHT22;6550;48.650;8.774;2024-02-16T02:00:16;9.80;99.90
12971;DHT22;6550;48.650;8.774;2024-02-16T02:02:46;9.80;99.90
12971;DHT22;6550;48.650;8.774;2024-02-16T02:05:13;9.80;99.90
12971;DHT22;6550;48.650;8.774;2024-02-16T02:07:44;9.90;99.90
12971;DHT22;6550;48.650;8.774;2024-02-16T02:10:11;9.80;99.90
12971;DHT22;6550;48.650;8.774;2024-02-16T02:15:11;9.80;99.90
12971;DHT22;6550;48.650;8.774;2024-02-16T02:17:41;9.40;99.90
12971;DHT22;6550;48.650;8.774;2024-02-16T02:20:10;9.80;99.90
12971;DHT22;6550;48.650;8.774;2024-02-16T02:22:38;10.00;99.90
12971;DHT22;6550;48.650;8.774;2024-02-16T02:25:08;9.80;99.90
12971;DHT22;6550;48.650;8.774;2024-02-16T02:27:38;9.80;99.90
12971;DHT22;6550;48.650;8.774;2024-02-16T02:30:05;10.50;99.90
12971;DHT22;6550;48.650;8.774;2024-02-16T02:32:33;9.70;99.90
12971;DHT22;6550;48.650;8.774;2024-02-16T02:35:00;9.70;99.90
12971;DHT22;6550;48.650;8.774;2024-02-16T02:37:32;10.20;99.90
12971;DHT22;6550;48.650;8.774;2024-02-16T02:39:59;10.20;99.90
12971;DHT22;6550;48.650;8.774;2024-02-16T02:42:26;10.60;99.90
12971;DHT22;6550;48.650;8.774;2024-02-16T02:44:57;9.70;99.90
12971;DHT22;6550;48.650;8.774;2024-02-16T02:47:24;9.70;99.90
12971;DHT22;6550;48.650;8.774;2024-02-16T02:49:51;9.70;99.90
12971;DHT22;6550;48.650;8.774;2024-02-16T02:52:22;9.70;99.90
12971;DHT22;6550;48.650;8.774;2024-02-16T02:54:49;9.60;99.90
12971;DHT22;6550;48.650;8.774;2024-02-16T02:57:16;9.80;99.90
12971;DHT22;6550;48.650;8.774;2024-02-16T02:59:45;9.70;99.90
12971;DHT22;6550;48.650;8.774;2024-02-16T03:02:14;9.80;99.90
12971;DHT22;6550;48.650;8.774;2024-02-16T03:04:41;10.00;99.90
12971;DHT22;6550;48.650;8.774;2024-02-16T03:07:10;9.70;99.90
12971;DHT22;6550;48.650;8.774;2024-02-16T03:09:37;9.70;99.90
12971;DHT22;6550;48.650;8.774;2024-02-16T03:12:04;9.20;99.90
12971;DHT22;6550;48.650;8.774;2024-02-16T03:14:31;9.90;99.90
12971;DHT22;6550;48.650;8.774;2024-02-16T03:17:00;9.70;99.90
12971;DHT22;6550;48.650;8.774;2024-02-16T03:19:29;9.60;99.90
12971;DHT22;6550;48.650;8.774;2024-02-16T03:21:56;9.90;99.90
12971;DHT22;6550;48.650;8.774;2024-02-16T03:24:23;9.60;99.90
12971;DHT22;6550;48.650;8.774;2024-02-16T03:29:19;9.50;99.90
12971;DHT22;6550;48.650;8.774;2024-02-16T03:31:48;9.40;99.90
12971;DHT22;6550;48.650;8.774;2024-02-16T03:34:16;9.50;99.90
12971;DHT22;6550;48.650;8.774;2024-02-16T03:36:43;9.60;99.90
12971;DHT22;6550;48.650;8.774;2024-02-16T03:39:10;9.50;99.90
12971;DHT22;6550;48.650;8.774;2024-02-16T03:41:39;9.40;99.90
12971;DHT22;6550;48.650;8.774;2024-02-16T03:44:06;9.30;99.90
12971;DHT22;6550;48.650;8.774;2024-02-16T03:46:37;9.50;99.90
12971;DHT22;6550;48.650;8.774;2024-02-16T03:49:04;9.60;99.90
12971;DHT22;6550;48.650;8.774;2024-02-16T03:51:33;9.70;99.90
12971;DHT22;6550;48.650;8.774;2024-02-16T03:54:00;9.40;99.90
12971;DHT22;6550;48.650;8.774;2024-02-16T03:56:33;9.40;99.90
12971;DHT22;6550;48.650;8.774;2024-02-16T03:59:00;9.50;99.90
12971;DHT22;6550;48.650;8.774;2024-02-16T04:01:35;9.50;99.90
12971;DHT22;6550;48.650;8.774;2024-02-16T04:04:02;9.50;99.90
12971;DHT22;6550;48.650;8.774;2024-02-16T04:06:31;9.40;99.90
12971;DHT22;6550;48.650;8.774;2024-02-16T04:09:00;9.60;99.90
12971;DHT22;6550;48.650;8.774;2024-02-16T04:11:29;9.30;99.90
12971;DHT22;6550;48.650;8.774;2024-02-16T04:13:57;9.40;99.90
12971;DHT22;6550;48.650;8.774;2024-02-16T04:16:23;9.40;99.90
12971;DHT22;6550;48.650;8.774;2024-02-16T04:18:51;9.20;99.90
12971;DHT22;6550;48.650;8.774;2024-02-16T04:21:18;9.20;99.90
12971;DHT22;6550;48.650;8.774;2024-02-16T04:23:48;9.20;99.90
12971;DHT22;6550;48.650;8.774;2024-02-16T04:26:15;9.20;99.90
12971;DHT22;6550;48.650;8.774;2024-02-16T04:28:44;9.20;99.90
12971;DHT22;6550;48.650;8.774;2024-02-16T04:31:11;9.40;99.90
12971;DHT22;6550;48.650;8.774;2024-02-16T04:33:40;9.20;99.90
12971;DHT22;6550;48.650;8.774;2024-02-16T04:36:10;9.10;99.90
12971;DHT22;6550;48.650;8.774;2024-02-16T04:38:37;9.10;99.90
12971;DHT22;6550;48.650;8.774;2024-02-16T04:41:07;9.20;99.90
12971;DHT22;6550;48.650;8.774;2024-02-16T04:43:37;9.20;99.90
12971;DHT22;6550;48.650;8.774;2024-02-16T04:46:03;9.10;99.90
12971;DHT22;6550;48.650;8.774;2024-02-16T04:48:33;9.10;99.90
12971;DHT22;6550;48.650;8.774;2024-02-16T04:51:01;9.20;99.90
12971;DHT22;6550;48.650;8.774;2024-02-16T04:53:29;9.20;99.90
12971;DHT22;6550;48.650;8.774;2024-02-16T04:55:56;9.20;99.90
12971;DHT22;6550;48.650;8.774;2024-02-16T04:58:23;9.30;99.90
12971;DHT22;6550;48.650;8.774;2024-02-16T05:00:50;9.10;99.90
12971;DHT22;6550;48.650;8.774;2024-02-16T05:03:17;9.20;99.90
12971;DHT22;6550;48.650;8.774;2024-02-16T05:05:44;9.10;99.90
12971;DHT22;6550;48.650;8.774;2024-02-16T05:08:14;9.10;99.90
12971;DHT22;6550;48.650;8.774;2024-02-16T05:10:41;11.20;99.90
12971;DHT22;6550;48.650;8.774;2024-02-16T05:13:26;9.40;99.90
12971;DHT22;6550;48.650;8.774;2024-02-16T05:15:55;9.10;99.90
12971;DHT22;6550;48.650;8.774;2024-02-16T05:18:22;8.70;99.90
12971;DHT22;6550;48.650;8.774;2024-02-16T05:20:54;9.00;99.90
12971;DHT22;6550;48.650;8.774;2024-02-16T05:23:21;9.00;99.90
12971;DHT22;6550;48.650;8.774;2024-02-16T05:25:47;9.10;99.90
12971;DHT22;6550;48.650;8.774;2024-02-16T05:28:14;8.90;99.90
12971;DHT22;6550;48.650;8.774;2024-02-16T05:30:41;9.00;99.90
12971;DHT22;6550;48.650;8.774;2024-02-16T05:33:10;9.00;99.90
12971;DHT22;6550;48.650;8.774;2024-02-16T05:35:37;8.80;99.90
12971;DHT22;6550;48.650;8.774;2024-02-16T05:38:06;9.00;99.90
12971;DHT22;6550;48.650;8.774;2024-02-16T05:40:37;8.80;99.90
12971;DHT22;6550;48.650;8.774;2024-02-16T05:43:20;9.00;99.90
12971;DHT22;6550;48.650;8.774;2024-02-16T05:45:47;9.10;99.90
12971;DHT22;6550;48.650;8.774;2024-02-16T05:48:16;9.00;99.90
12971;DHT22;6550;48.650;8.774;2024-02-16T05:50:43;8.90;99.90
12971;DHT22;6550;48.650;8.774;2024-02-16T05:53:15;8.70;99.90
12971;DHT22;6550;48.650;8.774;2024-02-16T05:55:45;8.80;99.90
12971;DHT22;6550;48.650;8.774;2024-02-16T05:58:14;8.80;99.90
12971;DHT22;6550;48.650;8.774;2024-02-16T06:00:40;8.80;99.90
12971;DHT22;6550;48.650;8.774;2024-02-16T06:03:09;8.80;99.90
12971;DHT22;6550;48.650;8.774;2024-02-16T06:05:35;8.70;99.90
12971;DHT22;6550;48.650;8.774;2024-02-16T06:08:05;10.30;99.90
12971;DHT22;6550;48.650;8.774;2024-02-16T06:10:33;8.80;99.90
12971;DHT22;6550;48.650;8.774;2024-02-16T06:13:00;8.70;99.90
12971;DHT22;6550;48.650;8.774;2024-02-16T06:15:33;8.70;99.90
12971;DHT22;6550;48.650;8.774;2024-02-16T06:18:04;8.70;99.90
12971;DHT22;6550;48.650;8.774;2024-02-16T06:20:33;8.70;99.90
12971;DHT22;6550;48.650;8.774;2024-02-16T06:23:02;8.80;99.90
12971;DHT22;6550;48.650;8.774;2024-02-16T06:25:29;8.70;99.90
12971;DHT22;6550;48.650;8.774;2024-02-16T06:27:58;8.70;99.90
12971;DHT22;6550;48.650;8.774;2024-02-16T06:30:27;8.70;99.90
12971;DHT22;6550;48.650;8.774;2024-02-16T06:32:54;8.60;99.90
12971;DHT22;6550;48.650;8.774;2024-02-16T06:35:21;8.70;99.90
12971;DHT22;6550;48.650;8.774;2024-02-16T06:37:48;8.70;99.90
12971;DHT22;6550;48.650;8.774;2024-02-16T06:40:15;8.60;99.90
12971;DHT22;6550;48.650;8.774;2024-02-16T06:42:43;8.10;99.90
12971;DHT22;6550;48.650;8.774;2024-02-16T06:45:10;8.50;99.90
12971;DHT22;6550;48.650;8.774;2024-02-16T06:47:38;8.40;99.90
12971;DHT22;6550;48.650;8.774;2024-02-16T06:50:07;8.30;99.90
12971;DHT22;6550;48.650;8.774;2024-02-16T06:52:37;8.70;99.90
12971;DHT22;6550;48.650;8.774;2024-02-16T06:55:06;8.50;99.90
12971;DHT22;6550;48.650;8.774;2024-02-16T06:57:36;8.30;99.90
12971;DHT22;6550;48.650;8.774;2024-02-16T07:00:07;8.30;99.90
12971;DHT22;6550;48.650;8.774;2024-02-16T07:02:37;8.40;99.90
12971;DHT22;6550;48.650;8.774;2024-02-16T07:05:08;8.40;99.90
12971;DHT22;6550;48.650;8.774;2024-02-16T07:07:37;8.40;99.90
12971;DHT22;6550;48.650;8.774;2024-02-16T07:10:06;9.60;99.90
12971;DHT22;6550;48.650;8.774;2024-02-16T07:12:33;8.80;99.90
12971;DHT22;6550;48.650;8.774;2024-02-16T07:15:00;8.50;99.90
12971;DHT22;6550;48.650;8.774;2024-02-16T07:17:27;8.60;99.90
12971;DHT22;6550;48.650;8.774;2024-02-16T07:19:54;8.60;99.90
12971;DHT22;6550;48.650;8.774;2024-02-16T07:22:23;8.80;99.90
12971;DHT22;6550;48.650;8.774;2024-02-16T07:24:50;8.60;99.90
12971;DHT22;6550;48.650;8.774;2024-02-16T07:27:17;8.70;99.90
12971;DHT22;6550;48.650;8.774;2024-02-16T07:29:46;8.70;99.90
12971;DHT22;6550;48.650;8.774;2024-02-16T07:32:13;8.70;99.90
12971;DHT22;6550;48.650;8.774;2024-02-16T07:34:42;8.80;99.90
12971;DHT22;6550;48.650;8.774;2024-02-16T07:37:11;9.20;99.90
12971;DHT22;6550;48.650;8.774;2024-02-16T07:39:38;8.80;99.90
12971;DHT22;6550;48.650;8.774;2024-02-16T07:42:05;10.00;99.90
12971;DHT22;6550;48.650;8.774;2024-02-16T07:44:36;8.90;99.90
12971;DHT22;6550;48.650;8.774;2024-02-16T07:47:03;10.30;99.90
12971;DHT22;6550;48.650;8.774;2024-02-16T07:49:30;9.00;99.90
12971;DHT22;6550;48.650;8.774;2024-02-16T07:51:57;10.30;99.90
12971;DHT22;6550;48.650;8.774;2024-02-16T07:54:24;9.20;99.90
12971;DHT22;6550;48.650;8.774;2024-02-16T07:56:53;9.20;99.90
12971;DHT22;6550;48.650;8.774;2024-02-16T07:59:22;10.30;99.90
12971;DHT22;6550;48.650;8.774;2024-02-16T08:01:50;9.80;99.90
12971;DHT22;6550;48.650;8.774;2024-02-16T08:04:20;10.70;99.90
12971;DHT22;6550;48.650;8.774;2024-02-16T08:06:49;9.50;99.90
12971;DHT22;6550;48.650;8.774;2024-02-16T08:09:16;9.70;99.90
12971;DHT22;6550;48.650;8.774;2024-02-16T08:11:43;9.80;99.90
12971;DHT22;6550;48.650;8.774;2024-02-16T08:14:10;10.30;99.90
12971;DHT22;6550;48.650;8.774;2024-02-16T08:16:37;10.10;99.90
12971;DHT22;6550;48.650;8.774;2024-02-16T08:19:06;10.30;99.90
12971;DHT22;6550;48.650;8.774;2024-02-16T08:21:33;10.50;99.90
12971;DHT22;6550;48.650;8.774;2024-02-16T08:24:00;11.00;99.90
12971;DHT22;6550;48.650;8.774;2024-02-16T08:26:30;11.50;99.90
12971;DHT22;6550;48.650;8.774;2024-02-16T08:28:59;11.00;99.90
12971;DHT22;6550;48.650;8.774;2024-02-16T08:31:28;11.20;99.90
12971;DHT22;6550;48.650;8.774;2024-02-16T08:33:57;11.50;99.90
12971;DHT22;6550;48.650;8.774;2024-02-16T08:36:24;11.80;99.90
12971;DHT22;6550;48.650;8.774;2024-02-16T08:38:55;11.70;99.90
12971;DHT22;6550;48.650;8.774;2024-02-16T08:41:22;11.80;99.90
12971;DHT22;6550;48.650;8.774;2024-02-16T08:43:51;12.90;99.90
12971;DHT22;6550;48.650;8.774;2024-02-16T08:46:26;12.00;99.90
12971;DHT22;6550;48.650;8.774;2024-02-16T08:48:52;12.60;99.90
12971;DHT22;6550;48.650;8.774;2024-02-16T08:51:24;12.50;99.90
12971;DHT22;6550;48.650;8.774;2024-02-16T08:53:55;12.70;99.90
12971;DHT22;6550;48.650;8.774;2024-02-16T08:56:24;13.80;99.90
12971;DHT22;6550;48.650;8.774;2024-02-16T08:58:51;14.20;99.90
12971;DHT22;6550;48.650;8.774;2024-02-16T09:01:33;13.00;99.90
12971;DHT22;6550;48.650;8.774;2024-02-16T09:04:00;13.20;99.90
12971;DHT22;6550;48.650;8.774;2024-02-16T09:08:56;13.50;99.90
12971;DHT22;6550;48.650;8.774;2024-02-16T09:11:23;14.30;99.90
12971;DHT22;6550;48.650;8.774;2024-02-16T09:13:52;14.10;99.90
12971;DHT22;6550;48.650;8.774;2024-02-16T09:16:21;14.10;99.90
12971;DHT22;6550;48.650;8.774;2024-02-16T09:18:51;14.10;99.90
12971;DHT22;6550;48.650;8.774;2024-02-16T09:21:20;14.50;99.90
12971;DHT22;6550;48.650;8.774;2024-02-16T09:23:53;14.00;99.90
12971;DHT22;6550;48.650;8.774;2024-02-16T09:26:20;14.00;99.90
12971;DHT22;6550;48.650;8.774;2024-02-16T09:28:47;14.00;99.90
12971;DHT22;6550;48.650;8.774;2024-02-16T09:31:16;14.00;99.90
12971;DHT22;6550;48.650;8.774;2024-02-16T09:33:45;14.30;99.90
12971;DHT22;6550;48.650;8.774;2024-02-16T09:36:12;14.20;99.90
12971;DHT22;6550;48.650;8.774;2024-02-16T09:38:41;14.10;99.90
12971;DHT22;6550;48.650;8.774;2024-02-16T09:41:08;14.20;99.90
12971;DHT22;6550;48.650;8.774;2024-02-16T09:48:29;14.30;99.90
12971;DHT22;6550;48.650;8.774;2024-02-16T09:50:58;14.30;99.90
12971;DHT22;6550;48.650;8.774;2024-02-16T09:53:28;14.50;99.90
12971;DHT22;6550;48.650;8.774;2024-02-16T09:55:56;14.40;99.90
12971;DHT22;6550;48.650;8.774;2024-02-16T09:58:23;14.80;99.90
12971;DHT22;6550;48.650;8.774;2024-02-16T10:00:56;14.50;99.90
12971;DHT22;6550;48.650;8.774;2024-02-16T10:03:29;14.50;99.90
12971;DHT22;6550;48.650;8.774;2024-02-16T10:08:56;14.50;99.90
12971;DHT22;6550;48.650;8.774;2024-02-16T10:11:26;14.60;99.90
12971;DHT22;6550;48.650;8.774;2024-02-16T10:13:59;14.60;99.90
12971;DHT22;6550;48.650;8.774;2024-02-16T10:16:26;14.60;99.90
12971;DHT22;6550;48.650;8.774;2024-02-16T10:19:06;14.60;99.90
12971;DHT22;6550;48.650;8.774;2024-02-16T10:21:34;14.60;99.90
12971;DHT22;6550;48.650;8.774;2024-02-16T10:28:58;14.70;99.90
12971;DHT22;6550;48.650;8.774;2024-02-16T10:31:26;14.80;99.90
12971;DHT22;6550;48.650;8.774;2024-02-16T10:34:00;14.80;99.90
12971;DHT22;6550;48.650;8.774;2024-02-16T10:36:30;14.80;99.90
12971;DHT22;6550;48.650;8.774;2024-02-16T10:39:03;14.90;99.90
12971;DHT22;6550;48.650;8.774;2024-02-16T10:41:40;15.00;99.90
12971;DHT22;6550;48.650;8.774;2024-02-16T10:44:07;15.10;99.90
12971;DHT22;6550;48.650;8.774;2024-02-16T10:46:36;15.20;99.90
12971;DHT22;6550;48.650;8.774;2024-02-16T10:49:04;15.20;99.90
12971;DHT22;6550;48.650;8.774;2024-02-16T10:51:48;15.20;99.90
12971;DHT22;6550;48.650;8.774;2024-02-16T10:54:19;15.30;99.90
12971;DHT22;6550;48.650;8.774;2024-02-16T10:56:52;15.30;99.90
12971;DHT22;6550;48.650;8.774;2024-02-16T10:59:19;15.40;99.90
12971;DHT22;6550;48.650;8.774;2024-02-16T11:01:59;15.30;99.90
12971;DHT22;6550;48.650;8.774;2024-02-16T11:04:39;15.40;99.90
12971;DHT22;6550;48.650;8.774;2024-02-16T11:07:15;15.40;99.90
12971;DHT22;6550;48.650;8.774;2024-02-16T11:09:43;15.50;99.90
12971;DHT22;6550;48.650;8.774;2024-02-16T11:12:12;15.50;99.90
12971;DHT22;6550;48.650;8.774;2024-02-16T11:14:44;15.60;99.90
12971;DHT22;6550;48.650;8.774;2024-02-16T11:17:19;15.60;99.90
12971;DHT22;6550;48.650;8.774;2024-02-16T11:19:49;15.70;99.90
12971;DHT22;6550;48.650;8.774;2024-02-16T11:22:19;15.80;99.90
12971;DHT22;6550;48.650;8.774;2024-02-16T11:24:48;15.90;99.90
12971;DHT22;6550;48.650;8.774;2024-02-16T11:27:16;16.30;99.90
12971;DHT22;6550;48.650;8.774;2024-02-16T11:29:49;16.30;99.90
12971;DHT22;6550;48.650;8.774;2024-02-16T11:32:19;16.70;99.90
12971;DHT22;6550;48.650;8.774;2024-02-16T11:34:51;16.40;99.90
12971;DHT22;6550;48.650;8.774;2024-02-16T11:37:18;16.80;99.90
12971;DHT22;6550;48.650;8.774;2024-02-16T11:39:44;17.00;99.90
12971;DHT22;6550;48.650;8.774;2024-02-16T11:42:21;17.20;99.90
12971;DHT22;6550;48.650;8.774;2024-02-16T11:44:57;17.40;99.90
12971;DHT22;6550;48.650;8.774;2024-02-16T11:47:26;17.60;99.90
12971;DHT22;6550;48.650;8.774;2024-02-16T11:50:06;17.80;99.90
12971;DHT22;6550;48.650;8.774;2024-02-16T11:52:35;18.10;99.90
12971;DHT22;6550;48.650;8.774;2024-02-16T11:55:08;18.20;99.90
12971;DHT22;6550;48.650;8.774;2024-02-16T11:57:36;18.40;99.90
12971;DHT22;6550;48.650;8.774;2024-02-16T12:00:04;19.00;99.90
12971;DHT22;6550;48.650;8.774;2024-02-16T12:02:35;18.60;99.90
12971;DHT22;6550;48.650;8.774;2024-02-16T12:05:03;18.70;99.90
12971;DHT22;6550;48.650;8.774;2024-02-16T12:07:31;18.70;99.90
12971;DHT22;6550;48.650;8.774;2024-02-16T12:10:02;18.80;99.90
12971;DHT22;6550;48.650;8.774;2024-02-16T12:12:31;18.80;99.90
12971;DHT22;6550;48.650;8.774;2024-02-16T12:15:01;18.90;99.90
12971;DHT22;6550;48.650;8.774;2024-02-16T12:17:30;18.90;99.90
12971;DHT22;6550;48.650;8.774;2024-02-16T12:22:25;19.00;99.90
12971;DHT22;6550;48.650;8.774;2024-02-16T12:24:52;19.00;99.90
12971;DHT22;6550;48.650;8.774;2024-02-16T12:27:19;18.60;99.90
12971;DHT22;6550;48.650;8.774;2024-02-16T12:29:46;18.80;99.90
12971;DHT22;6550;48.650;8.774;2024-02-16T12:32:13;18.70;99.90
12971;DHT22;6550;48.650;8.774;2024-02-16T12:34:48;18.70;99.90
12971;DHT22;6550;48.650;8.774;2024-02-16T12:37:18;18.80;99.90
12971;DHT22;6550;48.650;8.774;2024-02-16T12:39:47;18.80;99.90
12971;DHT22;6550;48.650;8.774;2024-02-16T12:42:15;18.90;99.90
12971;DHT22;6550;48.650;8.774;2024-02-16T12:44:42;18.80;99.90
12971;DHT22;6550;48.650;8.774;2024-02-16T12:47:08;18.70;99.90
12971;DHT22;6550;48.650;8.774;2024-02-16T12:49:38;18.80;99.90
12971;DHT22;6550;48.650;8.774;2024-02-16T12:52:06;18.70;99.90
12971;DHT22;6550;48.650;8.774;2024-02-16T12:54:33;18.70;99.90
12971;DHT22;6550;48.650;8.774;2024-02-16T12:57:01;18.60;99.90
12971;DHT22;6550;48.650;8.774;2024-02-16T12:59:28;19.10;99.90
12971;DHT22;6550;48.650;8.774;2024-02-16T13:01:56;18.20;99.90
12971;DHT22;6550;48.650;8.774;2024-02-16T13:04:23;18.60;99.90
12971;DHT22;6550;48.650;8.774;2024-02-16T13:06:50;18.60;99.90
12971;DHT22;6550;48.650;8.774;2024-02-16T13:09:19;18.60;99.90
12971;DHT22;6550;48.650;8.774;2024-02-16T13:11:48;18.60;99.90
12971;DHT22;6550;48.650;8.774;2024-02-16T13:14:21;18.70;99.90
12971;DHT22;6550;48.650;8.774;2024-02-16T13:16:48;18.50;99.90
12971;DHT22;6550;48.650;8.774;2024-02-16T13:19:15;18.50;99.90
12971;DHT22;6550;48.650;8.774;2024-02-16T13:21:44;18.30;99.90
12971;DHT22;6550;48.650;8.774;2024-02-16T13:24:14;18.40;99.90
12971;DHT22;6550;48.650;8.774;2024-02-16T13:26:43;18.30;99.90
12971;DHT22;6550;48.650;8.774;2024-02-16T13:29:12;18.30;99.90
12971;DHT22;6550;48.650;8.774;2024-02-16T13:31:39;18.20;99.90
12971;DHT22;6550;48.650;8.774;2024-02-16T13:34:09;18.10;99.90
12971;DHT22;6550;48.650;8.774;2024-02-16T13:36:36;18.00;99.90
12971;DHT22;6550;48.650;8.774;2024-02-16T13:39:05;18.10;99.90
12971;DHT22;6550;48.650;8.774;2024-02-16T13:41:39;18.60;99.90
12971;DHT22;6550;48.650;8.774;2024-02-16T13:44:05;18.30;99.90
12971;DHT22;6550;48.650;8.774;2024-02-16T13:46:34;18.10;99.90
12971;DHT22;6550;48.650;8.774;2024-02-16T13:49:01;18.00;99.90
12971;DHT22;6550;48.650;8.774;2024-02-16T13:53:58;18.00;99.90
12971;DHT22;6550;48.650;8.774;2024-02-16T13:58:52;17.90;99.90
12971;DHT22;6550;48.650;8.774;2024-02-16T14:01:18;17.90;99.90
12971;DHT22;6550;48.650;8.774;2024-02-16T14:03:45;17.90;99.90
12971;DHT22;6550;48.650;8.774;2024-02-16T14:06:14;17.90;99.90
12971;DHT22;6550;48.650;8.774;2024-02-16T14:11:11;17.90;99.90
12971;DHT22;6550;48.650;8.774;2024-02-16T14:13:40;17.90;99.90
12971;DHT22;6550;48.650;8.774;2024-02-16T14:16:06;17.90;99.90
12971;DHT22;6550;48.650;8.774;2024-02-16T14:18:37;17.90;99.90
12971;DHT22;6550;48.650;8.774;2024-02-16T14:21:04;17.80;99.90
12971;DHT22;6550;48.650;8.774;2024-02-16T14:23:33;17.80;99.90
12971;DHT22;6550;48.650;8.774;2024-02-16T14:26:00;17.80;99.90
12971;DHT22;6550;48.650;8.774;2024-02-16T14:28:26;17.80;99.90
12971;DHT22;6550;48.650;8.774;2024-02-16T14:30:53;17.70;99.90
12971;DHT22;6550;48.650;8.774;2024-02-16T14:33:26;17.70;99.90
12971;DHT22;6550;48.650;8.774;2024-02-16T14:36:01;17.70;99.90
12971;DHT22;6550;48.650;8.774;2024-02-16T14:40:58;17.60;99.90
12971;DHT22;6550;48.650;8.774;2024-02-16T14:43:33;17.50;99.90
12971;DHT22;6550;48.650;8.774;2024-02-16T14:46:02;17.60;99.90
12971;DHT22;6550;48.650;8.774;2024-02-16T14:48:31;17.50;99.90
12971;DHT22;6550;48.650;8.774;2024-02-16T14:51:03;17.50;99.90
12971;DHT22;6550;48.650;8.774;2024-02-16T14:56:00;17.40;99.90
12971;DHT22;6550;48.650;8.774;2024-02-16T14:58:32;17.30;99.90
12971;DHT22;6550;48.650;8.774;2024-02-16T15:03:31;17.20;99.90
12971;DHT22;6550;48.650;8.774;2024-02-16T15:05:58;17.10;99.90
12971;DHT22;6550;48.650;8.774;2024-02-16T15:08:25;17.00;99.90
12971;DHT22;6550;48.650;8.774;2024-02-16T15:10:53;17.00;99.90
12971;DHT22;6550;48.650;8.774;2024-02-16T15:15:49;16.80;99.90
12971;DHT22;6550;48.650;8.774;2024-02-16T15:20:43;16.80;99.90
12971;DHT22;6550;48.650;8.774;2024-02-16T15:23:10;16.70;99.90
12971;DHT22;6550;48.650;8.774;2024-02-16T15:25:37;16.80;99.90
12971;DHT22;6550;48.650;8.774;2024-02-16T15:28:06;16.70;99.90
12971;DHT22;6550;48.650;8.774;2024-02-16T15:30:34;16.60;99.90
12971;DHT22;6550;48.650;8.774;2024-02-16T15:35:28;16.50;99.90
12971;DHT22;6550;48.650;8.774;2024-02-16T15:43:01;16.50;99.90
12971;DHT22;6550;48.650;8.774;2024-02-16T15:47:59;16.40;99.90
12971;DHT22;6550;48.650;8.774;2024-02-16T15:50:26;16.40;99.90
12971;DHT22;6550;48.650;8.774;2024-02-16T15:55:20;16.40;99.90
12971;DHT22;6550;48.650;8.774;2024-02-16T15:57:46;16.30;99.90
12971;DHT22;6550;48.650;8.774;2024-02-16T16:07:40;16.20;99.90
12971;DHT22;6550;48.650;8.774;2024-02-16T16:10:10;16.20;99.90
12971;DHT22;6550;48.650;8.774;2024-02-16T16:12:40;16.10;99.90
12971;DHT22;6550;48.650;8.774;2024-02-16T16:15:12;16.10;99.90
12971;DHT22;6550;48.650;8.774;2024-02-16T16:20:09;15.90;99.90
12971;DHT22;6550;48.650;8.774;2024-02-16T16:22:36;15.90;99.90
12971;DHT22;6550;48.650;8.774;2024-02-16T16:25:05;16.10;99.90
12971;DHT22;6550;48.650;8.774;2024-02-16T16:27:35;15.80;99.90
12971;DHT22;6550;48.650;8.774;2024-02-16T16:30:02;15.70;99.90
12971;DHT22;6550;48.650;8.774;2024-02-16T16:32:29;15.60;99.90
12971;DHT22;6550;48.650;8.774;2024-02-16T16:37:24;15.50;99.90
12971;DHT22;6550;48.650;8.774;2024-02-16T16:39:50;15.50;99.90
12971;DHT22;6550;48.650;8.774;2024-02-16T16:42:17;15.60;99.90
12971;DHT22;6550;48.650;8.774;2024-02-16T16:44:44;15.50;99.90
12971;DHT22;6550;48.650;8.774;2024-02-16T16:49:42;15.40;99.90
12971;DHT22;6550;48.650;8.774;2024-02-16T16:52:09;15.30;99.90
12971;DHT22;6550;48.650;8.774;2024-02-16T16:54:41;15.30;99.90
12971;DHT22;6550;48.650;8.774;2024-02-16T16:57:08;15.20;99.90
12971;DHT22;6550;48.650;8.774;2024-02-16T16:59:35;15.10;99.90
12971;DHT22;6550;48.650;8.774;2024-02-16T17:04:30;15.10;99.90
12971;DHT22;6550;48.650;8.774;2024-02-16T17:06:59;15.10;99.90
12971;DHT22;6550;48.650;8.774;2024-02-16T17:09:31;15.00;99.90
12971;DHT22;6550;48.650;8.774;2024-02-16T17:12:00;15.00;99.90
12971;DHT22;6550;48.650;8.774;2024-02-16T17:17:00;14.90;99.90